sensor_id;sensor_type;location;lat;lon;timestamp;pressure;altitude;pressure_sealevel;temperature;humidity
18504;BME280;9381;54.244;10.074;2023-06-01T00:01:12;101614.78;;;13.64;92.56
18504;BME280;9381;54.244;10.074;2023-06-01T00:06:13;101604.13;;;13.62;92.46
18504;BME280;9381;54.244;10.074;2023-06-01T00:11:13;101608.31;;;13.58;90.64
18504;BME280;9381;54.244;10.074;2023-06-01T00:16:14;101603.06;;;13.70;89.85
18504;BME280;9381;54.244;10.074;2023-06-01T00:21:14;101612.22;;;13.69;90.27
18504;BME280;9381;54.244;10.074;2023-06-01T00:26:15;101611.84;;;13.59;89.88
18504;BME280;9381;54.244;10.074;2023-06-01T00:31:15;101594.91;;;13.63;90.64
18504;BME280;9381;54.244;10.074;2023-06-01T00:36:16;101598.25;;;13.65;90.38
18504;BME280;9381;54.244;10.074;2023-06-01T00:41:16;101602.69;;;13.53;90.25
18504;BME280;9381;54.244;10.074;2023-06-01T00:46:16;101603.56;;;13.47;90.49
18504;BME280;9381;54.244;10.074;2023-06-01T00:51:17;101598.56;;;13.38;91.88
18504;BME280;9381;54.244;10.074;2023-06-01T00:56:17;101594.34;;;13.48;91.15
18504;BME280;9381;54.244;10.074;2023-06-01T01:01:18;101592.31;;;13.31;91.29
18504;BME280;9381;54.244;10.074;2023-06-01T01:06:25;101589.59;;;13.37;91.64
18504;BME280;9381;54.244;10.074;2023-06-01T01:11:29;101579.09;;;13.47;90.05
18504;BME280;9381;54.244;10.074;2023-06-01T01:16:37;101589.56;;;13.44;89.70
18504;BME280;9381;54.244;10.074;2023-06-01T01:21:42;101590.19;;;13.46;89.90
18504;BME280;9381;54.244;10.074;2023-06-01T01:32:00;101583.09;;;13.38;90.31
18504;BME280;9381;54.244;10.074;2023-06-01T01:37:03;101572.66;;;13.42;89.42
18504;BME280;9381;54.244;10.074;2023-06-01T01:42:05;101577.16;;;13.54;89.37
18504;BME280;9381;54.244;10.074;2023-06-01T01:47:07;101564.25;;;13.43;89.72
18504;BME280;9381;54.244;10.074;2023-06-01T01:52:26;101562.97;;;13.52;89.69
18504;BME280;9381;54.244;10.074;2023-06-01T01:57:30;101573.06;;;13.39;90.50
18504;BME280;9381;54.244;10.074;2023-06-01T02:02:32;101569.91;;;13.48;89.85
18504;BME280;9381;54.244;10.074;2023-06-01T02:07:32;101558.22;;;13.41;89.55
18504;BME280;9381;54.244;10.074;2023-06-01T02:12:34;101557.97;;;13.49;89.21
18504;BME280;9381;54.244;10.074;2023-06-01T02:17:35;101551.50;;;13.50;89.09
18504;BME280;9381;54.244;10.074;2023-06-01T02:22:37;101550.91;;;13.42;88.84
18504;BME280;9381;54.244;10.074;2023-06-01T02:27:37;101545.03;;;13.45;89.31
18504;BME280;9381;54.244;10.074;2023-06-01T02:32:38;101546.03;;;13.50;89.11
18504;BME280;9381;54.244;10.074;2023-06-01T02:37:38;101538.34;;;13.47;89.52
18504;BME280;9381;54.244;10.074;2023-06-01T02:42:39;101535.81;;;13.46;89.41
18504;BME280;9381;54.244;10.074;2023-06-01T02:47:39;101527.91;;;13.38;90.15
18504;BME280;9381;54.244;10.074;2023-06-01T02:52:39;101521.22;;;13.40;89.42
18504;BME280;9381;54.244;10.074;2023-06-01T02:57:42;101519.63;;;13.20;89.84
18504;BME280;9381;54.244;10.074;2023-06-01T03:02:43;101517.91;;;13.32;89.51
18504;BME280;9381;54.244;10.074;2023-06-01T03:07:44;101502.84;;;13.36;90.07
18504;BME280;9381;54.244;10.074;2023-06-01T03:12:44;101500.06;;;13.49;88.48
18504;BME280;9381;54.244;10.074;2023-06-01T03:17:45;101496.88;;;13.58;87.82
18504;BME280;9381;54.244;10.074;2023-06-01T03:22:45;101495.63;;;13.54;87.22
18504;BME280;9381;54.244;10.074;2023-06-01T03:27:46;101497.94;;;13.51;88.20
18504;BME280;9381;54.244;10.074;2023-06-01T03:32:46;101488.94;;;13.57;87.95
18504;BME280;9381;54.244;10.074;2023-06-01T03:37:46;101492.31;;;13.52;87.87
18504;BME280;9381;54.244;10.074;2023-06-01T03:42:47;101488.53;;;13.53;88.72
18504;BME280;9381;54.244;10.074;2023-06-01T03:47:48;101499.88;;;13.44;88.13
18504;BME280;9381;54.244;10.074;2023-06-01T03:52:48;101496.56;;;13.42;88.01
18504;BME280;9381;54.244;10.074;2023-06-01T03:57:48;101490.69;;;13.45;87.87
18504;BME280;9381;54.244;10.074;2023-06-01T04:02:57;101483.13;;;13.47;87.90
18504;BME280;9381;54.244;10.074;2023-06-01T04:07:58;101476.84;;;13.46;87.71
18504;BME280;9381;54.244;10.074;2023-06-01T04:12:59;101487.34;;;13.43;88.16
18504;BME280;9381;54.244;10.074;2023-06-01T04:17:59;101488.78;;;13.52;88.40
18504;BME280;9381;54.244;10.074;2023-06-01T04:22:59;101493.72;;;13.61;88.78
18504;BME280;9381;54.244;10.074;2023-06-01T04:28:00;101489.72;;;13.64;88.61
18504;BME280;9381;54.244;10.074;2023-06-01T04:33:01;101481.75;;;13.69;88.72
18504;BME280;9381;54.244;10.074;2023-06-01T04:38:01;101467.50;;;13.73;87.90
18504;BME280;9381;54.244;10.074;2023-06-01T04:43:02;101470.41;;;13.78;87.89
18504;BME280;9381;54.244;10.074;2023-06-01T04:48:03;101469.19;;;13.68;89.10
18504;BME280;9381;54.244;10.074;2023-06-01T04:53:04;101481.22;;;13.85;88.89
18504;BME280;9381;54.244;10.074;2023-06-01T04:58:04;101477.28;;;13.81;87.99
18504;BME280;9381;54.244;10.074;2023-06-01T05:03:05;101472.06;;;13.79;86.28
18504;BME280;9381;54.244;10.074;2023-06-01T05:08:05;101473.47;;;13.88;85.69
18504;BME280;9381;54.244;10.074;2023-06-01T05:13:06;101474.06;;;13.90;86.86
18504;BME280;9381;54.244;10.074;2023-06-01T05:18:06;101463.66;;;13.87;86.43
18504;BME280;9381;54.244;10.074;2023-06-01T05:23:06;101461.97;;;13.86;86.22
18504;BME280;9381;54.244;10.074;2023-06-01T05:28:07;101452.31;;;13.90;85.45
18504;BME280;9381;54.244;10.074;2023-06-01T05:33:08;101446.97;;;13.77;85.14
18504;BME280;9381;54.244;10.074;2023-06-01T05:38:08;101453.63;;;13.81;85.36
18504;BME280;9381;54.244;10.074;2023-06-01T05:43:08;101455.22;;;13.95;84.15
18504;BME280;9381;54.244;10.074;2023-06-01T05:48:09;101450.91;;;14.12;83.28
18504;BME280;9381;54.244;10.074;2023-06-01T05:53:09;101445.34;;;14.25;83.68
18504;BME280;9381;54.244;10.074;2023-06-01T05:58:10;101445.69;;;14.35;83.81
18504;BME280;9381;54.244;10.074;2023-06-01T06:03:10;101439.47;;;14.28;83.91
18504;BME280;9381;54.244;10.074;2023-06-01T06:08:11;101439.97;;;14.43;83.56
18504;BME280;9381;54.244;10.074;2023-06-01T06:13:14;101439.97;;;14.43;83.12
18504;BME280;9381;54.244;10.074;2023-06-01T06:18:14;101442.19;;;14.53;81.65
18504;BME280;9381;54.244;10.074;2023-06-01T06:23:15;101451.03;;;14.48;80.75
18504;BME280;9381;54.244;10.074;2023-06-01T06:28:15;101448.44;;;14.53;80.26
18504;BME280;9381;54.244;10.074;2023-06-01T06:33:16;101444.38;;;14.62;79.82
18504;BME280;9381;54.244;10.074;2023-06-01T06:38:16;101438.16;;;14.73;80.18
18504;BME280;9381;54.244;10.074;2023-06-01T06:43:17;101436.50;;;14.90;80.15
18504;BME280;9381;54.244;10.074;2023-06-01T06:48:18;101439.09;;;15.03;79.72
18504;BME280;9381;54.244;10.074;2023-06-01T06:53:18;101444.25;;;14.93;79.63
18504;BME280;9381;54.244;10.074;2023-06-01T06:58:18;101436.19;;;14.98;79.96
18504;BME280;9381;54.244;10.074;2023-06-01T07:03:19;101436.97;;;15.05;79.26
18504;BME280;9381;54.244;10.074;2023-06-01T07:08:19;101440.44;;;14.94;79.10
18504;BME280;9381;54.244;10.074;2023-06-01T07:13:20;101449.81;;;15.16;78.53
18504;BME280;9381;54.244;10.074;2023-06-01T07:18:20;101447.97;;;15.28;78.29
18504;BME280;9381;54.244;10.074;2023-06-01T07:23:21;101441.63;;;15.16;78.54
18504;BME280;9381;54.244;10.074;2023-06-01T07:28:21;101441.91;;;15.26;79.40
18504;BME280;9381;54.244;10.074;2023-06-01T07:33:26;101434.78;;;15.43;78.28
18504;BME280;9381;54.244;10.074;2023-06-01T07:38:27;101434.25;;;15.52;77.67
18504;BME280;9381;54.244;10.074;2023-06-01T07:43:27;101427.09;;;15.51;76.27
18504;BME280;9381;54.244;10.074;2023-06-01T07:48:28;101427.41;;;15.61;76.39
18504;BME280;9381;54.244;10.074;2023-06-01T07:53:28;101423.72;;;16.08;76.75
18504;BME280;9381;54.244;10.074;2023-06-01T07:58:29;101425.38;;;16.32;75.51
18504;BME280;9381;54.244;10.074;2023-06-01T08:03:29;101421.84;;;16.55;74.29
18504;BME280;9381;54.244;10.074;2023-06-01T08:08:33;101429.44;;;16.64;74.19
18504;BME280;9381;54.244;10.074;2023-06-01T08:13:34;101438.78;;;16.80;74.25
18504;BME280;9381;54.244;10.074;2023-06-01T08:18:36;101431.09;;;16.54;74.75
18504;BME280;9381;54.244;10.074;2023-06-01T08:23:36;101440.44;;;16.81;74.04
18504;BME280;9381;54.244;10.074;2023-06-01T08:28:37;101426.84;;;16.58;73.56
18504;BME280;9381;54.244;10.074;2023-06-01T08:33:38;101424.19;;;16.86;72.51
18504;BME280;9381;54.244;10.074;2023-06-01T08:38:39;101416.75;;;17.09;72.66
18504;BME280;9381;54.244;10.074;2023-06-01T08:43:40;101426.84;;;17.09;70.54
18504;BME280;9381;54.244;10.074;2023-06-01T08:48:43;101416.19;;;16.96;72.39
18504;BME280;9381;54.244;10.074;2023-06-01T08:53:45;101429.00;;;17.07;72.89
18504;BME280;9381;54.244;10.074;2023-06-01T08:58:46;101418.41;;;17.50;71.29
18504;BME280;9381;54.244;10.074;2023-06-01T09:03:48;101414.16;;;17.87;70.51
18504;BME280;9381;54.244;10.074;2023-06-01T09:08:49;101428.75;;;17.76;68.27
18504;BME280;9381;54.244;10.074;2023-06-01T09:13:50;101417.78;;;18.25;69.57
18504;BME280;9381;54.244;10.074;2023-06-01T09:18:52;101418.47;;;18.48;69.18
18504;BME280;9381;54.244;10.074;2023-06-01T09:23:52;101414.28;;;18.62;67.51
18504;BME280;9381;54.244;10.074;2023-06-01T09:28:59;101407.41;;;18.81;66.87
18504;BME280;9381;54.244;10.074;2023-06-01T09:34:00;101392.06;;;19.45;65.25
18504;BME280;9381;54.244;10.074;2023-06-01T09:39:08;101384.44;;;19.83;63.57
18504;BME280;9381;54.244;10.074;2023-06-01T09:44:09;101384.34;;;19.73;66.11
18504;BME280;9381;54.244;10.074;2023-06-01T09:49:10;101389.53;;;20.33;63.13
18504;BME280;9381;54.244;10.074;2023-06-01T09:54:10;101383.34;;;20.52;61.65
18504;BME280;9381;54.244;10.074;2023-06-01T09:59:22;101377.56;;;20.95;61.31
18504;BME280;9381;54.244;10.074;2023-06-01T10:04:26;101379.16;;;20.91;60.15
18504;BME280;9381;54.244;10.074;2023-06-01T10:09:27;101361.75;;;21.52;60.11
18504;BME280;9381;54.244;10.074;2023-06-01T10:14:28;101369.50;;;22.15;59.02
18504;BME280;9381;54.244;10.074;2023-06-01T10:19:29;101367.25;;;22.52;56.51
18504;BME280;9381;54.244;10.074;2023-06-01T10:24:30;101361.94;;;22.75;54.95
18504;BME280;9381;54.244;10.074;2023-06-01T10:29:33;101365.31;;;22.57;55.01
18504;BME280;9381;54.244;10.074;2023-06-01T10:34:38;101369.03;;;22.96;54.10
18504;BME280;9381;54.244;10.074;2023-06-01T10:39:40;101357.16;;;23.49;52.14
18504;BME280;9381;54.244;10.074;2023-06-01T10:54:52;101338.13;;;23.81;53.32
18504;BME280;9381;54.244;10.074;2023-06-01T11:00:21;101327.63;;;24.17;52.79
18504;BME280;9381;54.244;10.074;2023-06-01T11:21:22;101327.81;;;23.97;50.79
18504;BME280;9381;54.244;10.074;2023-06-01T11:26:39;101308.63;;;24.34;49.33
18504;BME280;9381;54.244;10.074;2023-06-01T11:31:56;101311.72;;;24.50;49.56
18504;BME280;9381;54.244;10.074;2023-06-01T11:36:57;101307.44;;;24.86;49.61
18504;BME280;9381;54.244;10.074;2023-06-01T11:42:18;101301.78;;;25.70;48.26
18504;BME280;9381;54.244;10.074;2023-06-01T11:47:18;101298.25;;;25.65;47.61
18504;BME280;9381;54.244;10.074;2023-06-01T11:52:20;101308.47;;;26.01;46.25
18504;BME280;9381;54.244;10.074;2023-06-01T11:57:20;101300.22;;;25.46;45.56
18504;BME280;9381;54.244;10.074;2023-06-01T12:02:23;101299.69;;;25.62;46.95
18504;BME280;9381;54.244;10.074;2023-06-01T12:07:25;101308.78;;;24.70;45.07
18504;BME280;9381;54.244;10.074;2023-06-01T12:12:25;101303.72;;;25.14;47.55
18504;BME280;9381;54.244;10.074;2023-06-01T12:17:51;101297.00;;;26.21;45.82
18504;BME280;9381;54.244;10.074;2023-06-01T12:22:52;101287.53;;;27.03;46.19
18504;BME280;9381;54.244;10.074;2023-06-01T12:28:05;101278.09;;;26.23;45.37
18504;BME280;9381;54.244;10.074;2023-06-01T12:33:06;101290.03;;;26.24;45.04
18504;BME280;9381;54.244;10.074;2023-06-01T12:38:08;101279.84;;;26.19;44.08
18504;BME280;9381;54.244;10.074;2023-06-01T12:43:19;101274.91;;;25.84;45.61
18504;BME280;9381;54.244;10.074;2023-06-01T12:48:35;101282.19;;;25.48;44.94
18504;BME280;9381;54.244;10.074;2023-06-01T12:53:36;101273.78;;;25.85;46.07
18504;BME280;9381;54.244;10.074;2023-06-01T12:58:38;101266.78;;;26.06;45.30
18504;BME280;9381;54.244;10.074;2023-06-01T13:03:38;101267.59;;;26.07;46.81
18504;BME280;9381;54.244;10.074;2023-06-01T13:08:39;101265.88;;;26.11;46.94
18504;BME280;9381;54.244;10.074;2023-06-01T13:13:39;101263.72;;;26.48;44.93
18504;BME280;9381;54.244;10.074;2023-06-01T13:18:40;101269.88;;;26.18;42.93
18504;BME280;9381;54.244;10.074;2023-06-01T13:23:41;101260.50;;;26.14;42.98
18504;BME280;9381;54.244;10.074;2023-06-01T13:28:42;101273.53;;;25.68;43.47
18504;BME280;9381;54.244;10.074;2023-06-01T13:33:43;101273.38;;;25.46;44.81
18504;BME280;9381;54.244;10.074;2023-06-01T13:38:43;101271.59;;;25.69;45.29
18504;BME280;9381;54.244;10.074;2023-06-01T13:43:43;101281.16;;;25.07;47.97
18504;BME280;9381;54.244;10.074;2023-06-01T13:48:44;101277.50;;;23.95;49.07
18504;BME280;9381;54.244;10.074;2023-06-01T13:53:44;101281.47;;;23.84;50.32
18504;BME280;9381;54.244;10.074;2023-06-01T13:58:44;101276.66;;;22.10;53.49
18504;BME280;9381;54.244;10.074;2023-06-01T14:03:45;101272.00;;;21.61;56.57
18504;BME280;9381;54.244;10.074;2023-06-01T14:08:45;101270.31;;;21.20;58.48
18504;BME280;9381;54.244;10.074;2023-06-01T14:13:45;101280.28;;;21.66;57.60
18504;BME280;9381;54.244;10.074;2023-06-01T14:18:46;101287.34;;;22.27;55.78
18504;BME280;9381;54.244;10.074;2023-06-01T14:23:46;101279.63;;;22.29;55.74
18504;BME280;9381;54.244;10.074;2023-06-01T14:28:47;101270.91;;;21.97;56.59
18504;BME280;9381;54.244;10.074;2023-06-01T14:33:48;101271.69;;;21.97;56.38
18504;BME280;9381;54.244;10.074;2023-06-01T14:38:48;101267.59;;;21.85;56.61
18504;BME280;9381;54.244;10.074;2023-06-01T14:43:49;101273.66;;;21.42;57.04
18504;BME280;9381;54.244;10.074;2023-06-01T14:48:49;101283.25;;;21.19;57.37
18504;BME280;9381;54.244;10.074;2023-06-01T14:53:49;101274.16;;;21.19;58.02
18504;BME280;9381;54.244;10.074;2023-06-01T14:58:49;101273.63;;;21.22;57.39
18504;BME280;9381;54.244;10.074;2023-06-01T15:03:50;101272.53;;;21.18;58.27
18504;BME280;9381;54.244;10.074;2023-06-01T15:08:50;101270.03;;;21.07;59.84
18504;BME280;9381;54.244;10.074;2023-06-01T15:13:50;101279.66;;;21.09;58.59
18504;BME280;9381;54.244;10.074;2023-06-01T15:18:51;101287.59;;;20.91;58.60
18504;BME280;9381;54.244;10.074;2023-06-01T15:23:51;101283.22;;;20.33;60.16
18504;BME280;9381;54.244;10.074;2023-06-01T15:28:52;101280.88;;;20.10;61.41
18504;BME280;9381;54.244;10.074;2023-06-01T15:33:52;101270.16;;;19.67;63.05
18504;BME280;9381;54.244;10.074;2023-06-01T15:38:52;101278.00;;;19.27;64.51
18504;BME280;9381;54.244;10.074;2023-06-01T15:43:53;101277.47;;;19.30;63.89
18504;BME280;9381;54.244;10.074;2023-06-01T15:48:53;101271.34;;;19.18;64.14
18504;BME280;9381;54.244;10.074;2023-06-01T15:53:53;101274.25;;;19.33;63.93
18504;BME280;9381;54.244;10.074;2023-06-01T15:58:54;101273.78;;;19.46;64.46
18504;BME280;9381;54.244;10.074;2023-06-01T16:03:54;101278.34;;;19.09;64.46
18504;BME280;9381;54.244;10.074;2023-06-01T16:08:54;101287.41;;;18.62;65.48
18504;BME280;9381;54.244;10.074;2023-06-01T16:13:55;101278.56;;;18.55;66.16
18504;BME280;9381;54.244;10.074;2023-06-01T16:18:55;101280.81;;;18.84;65.86
18504;BME280;9381;54.244;10.074;2023-06-01T16:23:57;101268.84;;;18.90;65.59
18504;BME280;9381;54.244;10.074;2023-06-01T16:28:58;101260.31;;;18.65;66.74
18504;BME280;9381;54.244;10.074;2023-06-01T16:33:59;101261.47;;;18.69;65.78
18504;BME280;9381;54.244;10.074;2023-06-01T16:38:59;101251.69;;;18.14;67.11
18504;BME280;9381;54.244;10.074;2023-06-01T16:44:01;101250.38;;;18.16;67.79
18504;BME280;9381;54.244;10.074;2023-06-01T16:49:01;101246.13;;;17.88;68.12
18504;BME280;9381;54.244;10.074;2023-06-01T16:54:01;101253.72;;;18.02;68.05
18504;BME280;9381;54.244;10.074;2023-06-01T16:59:04;101246.78;;;17.94;68.25
18504;BME280;9381;54.244;10.074;2023-06-01T17:04:04;101243.44;;;17.92;68.50
18504;BME280;9381;54.244;10.074;2023-06-01T17:09:05;101241.22;;;17.89;68.31
18504;BME280;9381;54.244;10.074;2023-06-01T17:14:05;101249.97;;;17.54;69.39
18504;BME280;9381;54.244;10.074;2023-06-01T17:19:06;101245.88;;;17.07;70.76
18504;BME280;9381;54.244;10.074;2023-06-01T17:24:06;101242.81;;;17.20;71.22
18504;BME280;9381;54.244;10.074;2023-06-01T17:29:06;101235.16;;;16.89;71.81
18504;BME280;9381;54.244;10.074;2023-06-01T17:34:07;101238.00;;;16.94;71.97
18504;BME280;9381;54.244;10.074;2023-06-01T17:39:07;101230.38;;;16.96;72.36
18504;BME280;9381;54.244;10.074;2023-06-01T17:44:11;101226.78;;;16.79;72.25
18504;BME280;9381;54.244;10.074;2023-06-01T17:49:11;101234.81;;;16.57;73.73
18504;BME280;9381;54.244;10.074;2023-06-01T17:54:11;101233.31;;;16.50;73.72
18504;BME280;9381;54.244;10.074;2023-06-01T17:59:12;101245.78;;;16.46;73.53
18504;BME280;9381;54.244;10.074;2023-06-01T18:04:12;101243.84;;;16.58;73.73
18504;BME280;9381;54.244;10.074;2023-06-01T18:09:13;101261.53;;;16.55;73.70
18504;BME280;9381;54.244;10.074;2023-06-01T18:14:13;101263.22;;;16.45;74.23
18504;BME280;9381;54.244;10.074;2023-06-01T18:19:13;101269.88;;;16.49;74.20
18504;BME280;9381;54.244;10.074;2023-06-01T18:24:14;101263.88;;;16.01;75.92
18504;BME280;9381;54.244;10.074;2023-06-01T18:29:14;101280.97;;;15.73;76.93
18504;BME280;9381;54.244;10.074;2023-06-01T18:34:15;101275.41;;;15.80;76.74
18504;BME280;9381;54.244;10.074;2023-06-01T18:39:15;101268.75;;;15.87;76.47
18504;BME280;9381;54.244;10.074;2023-06-01T18:44:15;101268.06;;;15.69;77.02
18504;BME280;9381;54.244;10.074;2023-06-01T18:49:17;101271.72;;;15.63;77.40
18504;BME280;9381;54.244;10.074;2023-06-01T18:54:20;101284.03;;;15.31;78.32
18504;BME280;9381;54.244;10.074;2023-06-01T18:59:20;101278.03;;;15.22;79.59
18504;BME280;9381;54.244;10.074;2023-06-01T19:04:21;101275.94;;;15.36;79.38
18504;BME280;9381;54.244;10.074;2023-06-01T19:09:22;101277.28;;;15.33;79.74
18504;BME280;9381;54.244;10.074;2023-06-01T19:14:23;101274.78;;;15.32;79.82
18504;BME280;9381;54.244;10.074;2023-06-01T19:19:23;101280.16;;;15.20;80.71
18504;BME280;9381;54.244;10.074;2023-06-01T19:24:25;101280.38;;;15.19;81.25
18504;BME280;9381;54.244;10.074;2023-06-01T19:29:35;101274.03;;;14.95;82.44
18504;BME280;9381;54.244;10.074;2023-06-01T19:34:36;101285.22;;;14.76;83.61
18504;BME280;9381;54.244;10.074;2023-06-01T19:39:38;101284.31;;;14.64;84.92
18504;BME280;9381;54.244;10.074;2023-06-01T19:44:40;101286.63;;;14.67;85.31
18504;BME280;9381;54.244;10.074;2023-06-01T19:49:40;101298.13;;;14.51;86.38
18504;BME280;9381;54.244;10.074;2023-06-01T19:54:41;101294.53;;;14.15;88.51
18504;BME280;9381;54.244;10.074;2023-06-01T19:59:41;101301.16;;;14.25;88.15
18504;BME280;9381;54.244;10.074;2023-06-01T20:04:42;101297.16;;;14.28;88.26
18504;BME280;9381;54.244;10.074;2023-06-01T20:09:42;101301.44;;;14.17;89.38
18504;BME280;9381;54.244;10.074;2023-06-01T20:14:43;101298.38;;;13.89;90.77
18504;BME280;9381;54.244;10.074;2023-06-01T20:19:43;101304.72;;;13.83;91.23
18504;BME280;9381;54.244;10.074;2023-06-01T20:24:44;101300.16;;;13.77;91.32
18504;BME280;9381;54.244;10.074;2023-06-01T20:29:44;101309.19;;;13.71;91.69
18504;BME280;9381;54.244;10.074;2023-06-01T20:34:45;101296.81;;;13.57;92.59
18504;BME280;9381;54.244;10.074;2023-06-01T20:39:45;101304.78;;;13.52;93.26
18504;BME280;9381;54.244;10.074;2023-06-01T20:44:47;101314.16;;;13.56;92.89
18504;BME280;9381;54.244;10.074;2023-06-01T20:49:48;101315.38;;;13.60;92.89
18504;BME280;9381;54.244;10.074;2023-06-01T20:54:48;101321.03;;;13.59;92.88
18504;BME280;9381;54.244;10.074;2023-06-01T20:59:49;101325.50;;;13.47;93.81
18504;BME280;9381;54.244;10.074;2023-06-01T21:04:49;101326.13;;;13.49;94.59
18504;BME280;9381;54.244;10.074;2023-06-01T21:09:50;101331.16;;;13.45;94.00
18504;BME280;9381;54.244;10.074;2023-06-01T21:14:50;101338.56;;;13.38;94.54
18504;BME280;9381;54.244;10.074;2023-06-01T21:19:50;101333.53;;;13.35;95.08
18504;BME280;9381;54.244;10.074;2023-06-01T21:24:51;101340.53;;;13.18;96.83
18504;BME280;9381;54.244;10.074;2023-06-01T21:29:51;101336.41;;;13.16;97.44
18504;BME280;9381;54.244;10.074;2023-06-01T21:34:52;101340.38;;;13.13;97.80
18504;BME280;9381;54.244;10.074;2023-06-01T21:39:52;101342.03;;;13.14;97.55
18504;BME280;9381;54.244;10.074;2023-06-01T21:44:52;101349.16;;;13.15;96.61
18504;BME280;9381;54.244;10.074;2023-06-01T21:49:53;101348.69;;;13.18;95.81
18504;BME280;9381;54.244;10.074;2023-06-01T21:54:53;101349.75;;;13.17;95.76
18504;BME280;9381;54.244;10.074;2023-06-01T21:59:54;101346.63;;;13.20;96.35
18504;BME280;9381;54.244;10.074;2023-06-01T22:04:54;101352.41;;;13.30;96.45
18504;BME280;9381;54.244;10.074;2023-06-01T22:09:54;101346.16;;;13.23;96.68
18504;BME280;9381;54.244;10.074;2023-06-01T22:14:55;101355.97;;;13.24;96.89
18504;BME280;9381;54.244;10.074;2023-06-01T22:19:55;101348.19;;;13.34;95.52
18504;BME280;9381;54.244;10.074;2023-06-01T22:24:56;101356.19;;;13.23;95.35
18504;BME280;9381;54.244;10.074;2023-06-01T22:29:56;101356.25;;;13.16;95.77
18504;BME280;9381;54.244;10.074;2023-06-01T22:34:56;101352.25;;;13.19;95.62
18504;BME280;9381;54.244;10.074;2023-06-01T22:39:57;101360.09;;;13.02;95.83
18504;BME280;9381;54.244;10.074;2023-06-01T22:44:57;101354.69;;;12.96;95.59
18504;BME280;9381;54.244;10.074;2023-06-01T22:49:57;101356.97;;;12.92;95.19
18504;BME280;9381;54.244;10.074;2023-06-01T22:54:58;101349.50;;;12.81;96.20
18504;BME280;9381;54.244;10.074;2023-06-01T22:59:58;101348.53;;;12.69;96.35
18504;BME280;9381;54.244;10.074;2023-06-01T23:04:59;101357.28;;;12.71;95.96
18504;BME280;9381;54.244;10.074;2023-06-01T23:09:59;101362.28;;;12.74;95.20
18504;BME280;9381;54.244;10.074;2023-06-01T23:14:59;101364.84;;;12.63;94.78
18504;BME280;9381;54.244;10.074;2023-06-01T23:20:02;101366.09;;;12.60;94.13
18504;BME280;9381;54.244;10.074;2023-06-01T23:25:06;101368.84;;;12.54;93.96
18504;BME280;9381;54.244;10.074;2023-06-01T23:30:07;101369.91;;;12.46;93.92
18504;BME280;9381;54.244;10.074;2023-06-01T23:35:07;101373.25;;;12.35;94.48
18504;BME280;9381;54.244;10.074;2023-06-01T23:40:08;101371.19;;;12.31;94.14
18504;BME280;9381;54.244;10.074;2023-06-01T23:45:09;101369.31;;;12.18;93.89
18504;BME280;9381;54.244;10.074;2023-06-01T23:50:10;101378.53;;;12.11;93.46
18504;BME280;9381;54.244;10.074;2023-06-01T23:55:12;101369.56;;;12.10;92.18
